Weather observations for the past three days for
Charleston Executive Airport
Metric (Imperial)
Date Time (edt) Wind (kph) Vis. (km) Weather Sky Cond. Temperature (ºC) Relative Humidity Wind Chill (°C) Heat Index (°C) Pressure Precipitation (cm)
Air Dwpt 6 hour altimeter (cm) sea level (mb) 1 hr 3 hr 6 hr
Max. Min.
06 17:15 E 15 16.09 Fair CLR 29 25 79% 35 75.74 0.0
06 16:55 E 20 16.09 Fair CLR 30 25 75% 36 75.74 0.0
06 16:35 E 24 16.09 Fair CLR 31 24 66% 37 75.69 0.0
06 16:15 E 22 16.09 Fair CLR 31 25 70% 38 75.72 0.0
06 15:55 E 20 16.09 Fair CLR 32 24 63% 38 75.79 0.0
06 15:35 E 15 16.09 Fair CLR 32 24 63% 38 75.79 0.0
06 15:15 E 15 16.09 Fair CLR 32 23 59% 37 75.82 0.0
06 14:55 E 13 16.09 Fair CLR 32 23 59% 37 75.82 0.0
06 14:35 E 17 16.09 Fair CLR 33 23 56% 38 75.82 0.0
06 14:15 SE 19 16.09 Fair CLR 33 24 59% 39 75.84 0.0
06 13:55 E 17 16.09 Fair CLR 33 24 59% 39 75.84 0.0
06 13:35 E 13 16.09 Fair CLR 33 23 56% 38 75.84 0.0
06 13:15 Calm 16.09 Fair CLR 33 22 52% 37 75.84 0.0
06 12:55 Calm 16.09 Fair CLR 33 22 52% 37 75.87 0.0
06 12:35 Calm 16.09 Fair CLR 33 21 49% 36 75.9 0.0
06 12:15 Calm 16.09 Fair CLR 32 21 52% 35 75.9 0.0
06 11:55 N 7 16.09 Fair CLR 32 21 52% 35 75.92 0.0
06 11:30 N 9 16.09 Fair CLR 32 22 55% 36 75.92 0.0
06 11:15 N 9 16.09 Fair CLR 31 21 55% 34 75.92 0.0
06 10:55 N 6 16.09 Fair CLR 31 21 55% 34 75.95 0.0
06 10:35 Calm 16.09 Fair CLR 31 21 55% 34 75.95 0.0
06 10:15 N 6 16.09 Fair CLR 31 21 55% 34 75.92 0.0
06 09:55 Calm 16.09 Fair CLR 30 21 59% 33 75.92 0.0
06 09:35 Calm 16.09 Fair CLR 29 22 66% 32 75.92 0.0
06 09:15 Calm 16.09 Fair CLR 28 22 70% 31 75.9 0.0
06 08:55 Calm 16.09 Fair CLR 28 23 74% 31 75.9 0.0
06 08:35 Calm 16.09 Fair CLR 27 23 79% 30 75.9 0.0
06 08:15 Calm 16.09 Fair CLR 26 23 84% 28 75.87 0.0
06 07:55 Calm 16.09 Fair CLR 25 23 89% 26 75.87 0.0
06 07:35 Calm 16.09 Fair CLR 25 24 94% 26 75.84 0.0
06 07:15 Calm 16.09 Fair CLR 24 24 100% 23 75.84 0.0
06 06:55 Calm 16.09 Fair CLR 24 23 94% 23 75.82 0.0
06 06:35 Calm 14.48 Fair CLR 24 23 94% 23 75.79 0.0
06 06:15 Calm 16.09 Fair CLR 24 23 94% 23 75.79 0.0
06 05:55 Calm 16.09 Fair CLR 24 24 100% 23 75.79 0.0
06 05:35 Calm 16.09 A Few Clouds FEW018 24 23 94% 23 75.77 0.0
06 05:15 Calm 16.09 A Few Clouds FEW018 24 24 100% 23 75.77 0.0
06 04:55 Calm 16.09 Fair CLR 24 23 94% 23 75.77 0.0
06 04:35 Calm 16.09 Fair CLR 25 24 94% 26 75.74 0.0
06 04:15 Calm 16.09 Fair CLR 25 24 94% 26 75.77 0.0
06 03:55 Calm 16.09 Fair CLR 25 24 94% 26 75.77 0.0
06 03:35 Calm 16.09 A Few Clouds FEW014 25 24 94% 26 75.77 0.0
06 03:15 Calm 16.09 Mostly Cloudy BKN014 26 24 89% 28 75.79 0.0
06 02:55 Calm 16.09 Mostly Cloudy BKN014 26 24 89% 28 75.82 0.0
06 02:35 Calm 16.09 Mostly Cloudy BKN013 26 24 89% 28 75.82 0.0
06 02:15 Calm 16.09 Overcast OVC013 26 24 89% 28 75.82 0.0
06 01:55 Calm 16.09 Overcast OVC013 26 24 89% 28 75.82 0.0
06 01:35 Calm 16.09 Mostly Cloudy BKN011 27 24 84% 30 75.84 0.0
06 01:15 NW 6 16.09 Overcast OVC011 26 24 89% 28 75.84 0.0
06 00:55 N 7 16.09 Mostly Cloudy BKN011 27 26 94% 31 75.84 0.0
06 00:35 N 6 16.09 Fair CLR 27 27 100% 32 75.87 0.0
06 00:15 Calm 16.09 Fair CLR 28 27 94% 35 75.84 0.0
05 23:55 W 6 16.09 Fair CLR 28 27 94% 35 75.84 0.0
05 23:35 Calm 16.09 Fair CLR 28 27 94% 35 75.87 0.0
05 23:15 W 9 16.09 Fair CLR 28 27 94% 35 75.87 0.0
05 22:55 SW 7 16.09 Fair CLR 28 27 94% 35 75.84 0.0
05 22:35 Calm 16.09 Fair CLR 28 27 94% 35 75.84 0.0
05 22:15 NW 9 16.09 Fair CLR 29 27 89% 37 75.87 0.0
05 21:55 SW 15 G 24 16.09 Fair CLR 28 27 94% 35 75.72 0.0
05 21:35 S 15 16.09 Fair CLR 28 27 94% 35 75.74 0.0
05 21:15 S 11 16.09 Fair CLR 28 27 94% 35 75.79 0.0
05 20:55 Calm 16.09 Fair CLR 28 26 89% 34 75.82 0.0
05 20:35 Calm 16.09 Fair CLR 28 26 89% 34 75.84 0.0
05 20:15 Calm 16.09 Fair CLR 29 26 84% 36 75.84 0.0
05 19:55 SW 9 16.09 Fair CLR 29 26 84% 36 75.87 0.0
05 19:35 SW 6 16.09 Fair CLR 29 26 84% 36 75.84 0.0
05 19:15 SW 15 16.09 Fair CLR 29 26 84% 36 75.84 0.0
05 18:55 S 19 16.09 Fair CLR 30 26 79% 37 75.84 0.0
05 18:35 S 19 16.09 Fair CLR 31 26 75% 39 75.82 0.0
05 18:15 S 19 16.09 Fair CLR 31 26 75% 39 75.82 0.0
05 17:55 SW 17 16.09 Fair CLR 32 26 71% 41 75.82 0.0
05 17:35 S 20 16.09 Fair CLR 32 26 71% 41 75.82 0.0
05 17:15 S 19 16.09 Fair CLR 32 26 71% 41 75.82 0.0
05 16:55 S 20 16.09 Fair CLR 32 26 71% 41 75.79 0.0
05 16:35 S 19 G 28 16.09 Fair CLR 32 26 71% 41 75.77 0.0
05 16:15 S 19 16.09 Fair CLR 33 26 67% 42 75.77 0.0
05 15:55 S 15 16.09 Fair CLR 33 26 67% 42 75.77 0.0
05 13:55 S 19 G 30 16.09 Partly Cloudy FEW028 SCT034 SCT041 33 26 67% 42 75.9 0.0
05 13:35 S 15 16.09 Mostly Cloudy FEW025 SCT034 BKN047 33 26 67% 42 75.92 0.0
05 13:15 S 17 16.09 Mostly Cloudy SCT024 SCT032 BKN047 31 26 75% 39 75.95 0.0
05 12:35 Calm 16.09 A Few Clouds FEW030 33 24 59% 39 76 0.0
05 12:15 W 7 16.09 A Few Clouds FEW030 33 24 59% 39 76.02 0.0
05 11:55 SW 6 16.09 A Few Clouds FEW029 FEW035 32 24 63% 38 76.05 0.0
05 11:35 SW 7 16.09 A Few Clouds FEW028 FEW034 32 24 63% 38 76.05 0.0
05 11:15 W 6 16.09 A Few Clouds FEW023 31 24 66% 37 76.05 0.0
05 10:55 SW 9 16.09 A Few Clouds FEW023 32 25 67% 39 76.05 0.0
05 10:35 SW 11 16.09 Fair CLR 31 25 70% 38 76.05 0.0
05 10:15 Calm 16.09 Partly Cloudy SCT017 31 26 75% 39 76.07 0.0
05 09:55 NW 7 16.09 Mostly Cloudy BKN015 BKN021 31 26 75% 39 76.07 0.0
05 09:35 NW 7 16.09 Mostly Cloudy BKN014 29 26 84% 36 76.07 0.0
05 09:15 Calm 16.09 Partly Cloudy SCT013 29 26 84% 36 76.07 0.0
05 08:55 Calm 16.09 Fair CLR 29 26 84% 36 76.07 0.0
05 08:35 Calm 16.09 Fair CLR 29 26 84% 36 76.07 0.0
05 08:15 Calm 16.09 Fair CLR 28 26 89% 34 76.07 0.0
05 07:55 Calm 16.09 Fair CLR 27 26 94% 31 76.07 0.0
05 07:35 Calm 12.87 Fair CLR 26 26 100% 28 76.05 0.0
05 07:15 Calm 14.48 Fair CLR 26 26 100% 28 76.05 0.0
05 06:55 Calm 16.09 Fair CLR 25 25 100% 25 76.05 0.0
05 06:35 Calm 14.48 Fair CLR 25 25 100% 25 76.05 0.0
05 06:15 Calm 16.09 Fair CLR 25 25 100% 25 76.02 0.0
05 05:55 Calm 14.48 A Few Clouds FEW015 FEW020 26 26 100% 28 76.02 0.0
05 05:35 Calm 16.09 Mostly Cloudy BKN015 BKN021 26 26 100% 28 76.02 0.0
05 05:15 Calm 16.09 Mostly Cloudy BKN015 BKN019 BKN023 25 25 100% 25 76.02 0.0
05 04:55 Calm 16.09 A Few Clouds FEW015 25 25 100% 25 76.02 0.0
05 04:35 Calm 16.09 A Few Clouds FEW017 26 26 100% 28 76.02 0.0
05 04:15 Calm 14.48 Fair CLR 25 25 100% 25 76 0.0
05 03:55 Calm 16.09 Fair CLR 26 26 100% 28 76 0.0
05 03:35 Calm 16.09 A Few Clouds FEW017 26 26 100% 28 76 0.0
05 03:15 Calm 16.09 A Few Clouds FEW017 26 26 100% 28 76 0.0
05 02:55 Calm 16.09 Fair CLR 26 26 100% 28 76.02 0.0
05 02:35 Calm 16.09 Partly Cloudy SCT016 SCT023 26 26 100% 28 76.02 0.0
05 02:15 Calm 16.09 Mostly Cloudy BKN016 BKN021 26 26 100% 28 76.07 0.0
05 01:50 Calm 16.09 A Few Clouds FEW016 26 26 100% 28 76.1 0.0
05 01:35 SW 7 16.09 Fair CLR 26 26 100% 28 76.07 0.0
05 01:15 Calm 16.09 A Few Clouds FEW016 FEW024 27 26 94% 31 76.1 0.0
05 00:55 Calm 16.09 Partly Cloudy SCT015 SCT021 26 26 100% 28 76.12 0.0
05 00:35 Calm 14.48 Partly Cloudy SCT014 26 26 100% 28 76.12 0.0
05 00:15 Calm 16.09 A Few Clouds FEW014 26 25 94% 28 76.15 0.0
04 23:55 Calm 16.09 Fair CLR 26 25 94% 28 76.15 0.0
04 23:35 Calm 16.09 Fair CLR 27 26 94% 31 76.15 0.0
04 23:15 Calm 16.09 A Few Clouds FEW017 27 26 94% 31 76.17 0.0
04 22:55 Calm 16.09 A Few Clouds FEW017 27 25 89% 31 76.17 0.0
04 22:35 Calm 16.09 Fair CLR 27 26 94% 31 76.15 0.0
04 22:15 Calm 16.09 Fair CLR 27 25 89% 31 76.17 0.0
04 21:55 Calm 16.09 Fair CLR 28 25 84% 33 76.17 0.0
04 21:35 Calm 16.09 Fair CLR 28 26 89% 34 76.2 0.0
04 21:15 SW 6 16.09 A Few Clouds FEW019 FEW025 28 26 89% 34 76.17 0.0
04 20:55 SW 6 16.09 A Few Clouds FEW019 FEW025 28 26 89% 34 76.17 0.0
04 20:35 Calm 16.09 Fair CLR 28 25 84% 33 76.12 0.0
04 20:15 Calm 16.09 Fair CLR 28 25 84% 33 76.15 0.0
04 19:55 SW 6 16.09 A Few Clouds FEW020 FEW024 28 25 84% 33 76.12 0.0
04 19:35 S 11 16.09 A Few Clouds FEW018 FEW025 29 25 79% 35 76.12 0.0
04 19:15 S 11 16.09 A Few Clouds FEW019 29 25 79% 35 76.12 0.0
04 18:55 S 20 16.09 Partly Cloudy SCT020 30 25 75% 36 76.1 0.0
04 18:35 S 20 16.09 A Few Clouds FEW019 30 25 75% 36 76.1 0.0
04 18:15 S 20 16.09 A Few Clouds FEW020 30 25 75% 36 76.1 0.0
04 17:55 S 13 G 24 16.09 A Few Clouds FEW020 30 25 75% 36 76.12 0.0
04 17:35 S 15 16.09 A Few Clouds FEW021 FEW075 30 25 75% 36 76.12 0.0
04 17:15 S 17 16.09 A Few Clouds FEW020 FEW026 31 25 70% 38 76.12 0.0
04 16:55 S 15 16.09 A Few Clouds FEW020 31 25 70% 38 76.12 0.0
04 16:35 S 11 16.09 Fair CLR 31 25 70% 38 76.15 0.0
04 16:15 SE 9 16.09 Fair CLR 31 25 70% 38 76.15 0.0
04 15:55 SE 11 16.09 A Few Clouds FEW036 31 25 70% 38 76.17 0.0
04 15:35 S 13 16.09 Partly Cloudy FEW020 SCT025 SCT038 31 25 70% 38 76.2 0.0
04 15:15 S 15 16.09 Partly Cloudy SCT020 SCT025 SCT031 31 26 75% 39 76.2 0.0
04 14:55 S 13 16.09 A Few Clouds FEW022 FEW027 32 26 71% 41 76.2 0.0
04 14:35 S 13 G 22 16.09 Fair CLR 31 25 70% 38 76.23 0.0
04 14:15 S 11 16.09 Fair CLR 31 25 70% 38 76.23 0.0
04 13:55 S 11 16.09 A Few Clouds FEW024 32 25 67% 39 76.23 0.0
04 13:35 Vrbl 9 G 19 16.09 Partly Cloudy SCT024 31 25 70% 38 76.25 0.0
04 13:15 Vrbl 11 16.09 Partly Cloudy SCT022 31 25 70% 38 76.28 0.0
04 12:55 SE 11 G 20 16.09 Partly Cloudy SCT023 31 25 70% 38 76.28 0.0
04 12:35 S 11 16.09 Partly Cloudy SCT023 31 25 70% 38 76.3 0.0
04 12:15 SE 13 G 22 16.09 Partly Cloudy SCT023 31 25 70% 38 76.3 0.0
04 11:55 SE 13 16.09 Partly Cloudy SCT025 SCT045 31 25 70% 38 76.3 0.0
04 11:35 SE 13 16.09 Partly Cloudy FEW025 FEW045 SCT070 31 24 66% 37 76.33 0.0
04 11:15 SE 11 16.09 Fair CLR 31 24 66% 37 76.3 0.0
04 10:55 Calm 16.09 Fair CLR 31 25 70% 38 76.3 0.0
04 10:35 SE 9 16.09 A Few Clouds FEW023 31 25 70% 38 76.3 0.0
04 10:15 E 9 16.09 A Few Clouds FEW024 FEW030 FEW041 30 25 75% 36 76.3 0.0
04 09:55 Vrbl 11 16.09 Mostly Cloudy SCT022 BKN030 BKN040 31 25 70% 38 76.3 0.0
04 09:35 Calm 16.09 Mostly Cloudy BKN021 BKN027 BKN032 31 25 70% 38 76.28 0.0
04 09:15 Calm 16.09 A Few Clouds FEW021 FEW028 30 25 75% 36 76.28 0.0
04 08:55 Calm 16.09 A Few Clouds FEW022 29 25 79% 35 76.28 0.0
04 08:35 Calm 16.09 Fair CLR 29 26 84% 36 76.28 0.0
04 08:15 Calm 16.09 Fair CLR 29 26 84% 36 76.28 0.0
04 07:55 Calm 16.09 Fair CLR 28 26 89% 34 76.28 0.0
04 07:35 Calm 16.09 Fair CLR 26 25 94% 28 76.25 0.0
04 07:15 Calm 16.09 A Few Clouds FEW019 25 25 100% 25 76.23 0.0
04 06:55 Calm 16.09 A Few Clouds FEW018 26 25 94% 28 76.23 0.0
04 06:35 Calm 16.09 Partly Cloudy SCT018 SCT024 26 25 94% 28 76.2 0.0
04 06:15 Calm 16.09 Mostly Cloudy SCT019 SCT025 BKN035 26 25 94% 28 76.2 0.0
04 05:55 Calm 16.09 A Few Clouds FEW021 26 25 94% 28 76.2 0.0
04 05:35 Calm 16.09 Fair CLR 26 25 94% 28 76.2 0.0
04 05:15 Calm 16.09 A Few Clouds FEW017 FEW025 FEW031 27 25 89% 31 76.17 0.0
04 04:55 Calm 16.09 Mostly Cloudy SCT017 SCT024 BKN033 27 25 89% 31 76.17 0.0
04 04:35 Calm 16.09 Partly Cloudy FEW018 FEW023 SCT030 27 25 89% 31 76.17 0.0
04 04:15 Calm 16.09 A Few Clouds FEW020 FEW029 FEW034 27 25 89% 31 76.15 0.0
04 03:55 Calm 16.09 Partly Cloudy SCT019 SCT027 27 25 89% 31 76.17 0.0
04 03:35 Calm 16.09 Mostly Cloudy SCT019 SCT023 BKN028 26 26 100% 28 76.17 0.0
04 03:15 Calm 16.09 Mostly Cloudy BKN019 BKN024 27 25 89% 31 76.17 0.0
04 02:55 Calm 16.09 Partly Cloudy SCT019 SCT024 SCT029 27 25 89% 31 76.17 0.0
04 02:35 Calm 16.09 Partly Cloudy FEW019 SCT025 SCT031 27 25 89% 31 76.2 0.0
04 02:15 Calm 16.09 Partly Cloudy SCT019 SCT025 27 26 94% 31 76.2 0.0
04 01:50 Calm 16.09 Mostly Cloudy BKN019 27 26 94% 31 76.25 0.0
04 01:35 SE 6 16.09 Partly Cloudy SCT018 27 26 94% 31 76.25 0.0
04 01:15 SE 7 16.09 A Few Clouds FEW017 27 26 94% 31 76.25 0.0
04 00:55 SE 7 16.09 Fair CLR 28 26 89% 34 76.28 0.0
04 00:35 SE 9 16.09 Fair CLR 28 26 89% 34 76.28 0.0
04 00:15 SE 11 16.09 Fair CLR 28 26 89% 34 76.25 0.0
03 23:55 SE 13 16.09 A Few Clouds FEW020 FEW026 28 26 89% 34 76.28 0.0
03 23:35 Calm 16.09 Mostly Cloudy BKN020 BKN026 28 26 89% 34 76.28 0.0
03 23:15 Calm 16.09 Partly Cloudy SCT021 27 26 94% 31 76.3 0.0
03 22:55 Calm 16.09 Fair CLR 27 26 94% 31 76.3 0.0
03 22:35 SE 9 16.09 Partly Cloudy SCT018 SCT024 27 26 94% 31 76.3 0.0
03 22:10 E 6 16.09 Overcast BKN018 BKN025 OVC030 28 26 89% 34 76.3 0.0
03 21:55 Calm 16.09 Mostly Cloudy SCT019 BKN027 28 26 89% 34 76.3 0.0
03 21:35 E 7 16.09 A Few Clouds FEW019 27 26 94% 31 76.28 0.0
03 21:15 E 6 16.09 Fair CLR 27 26 94% 31 76.25 0.0
03 20:55 E 7 16.09 Fair CLR 28 26 89% 34 76.23 0.0
03 20:35 E 9 16.09 A Few Clouds FEW019 28 26 89% 34 76.2 0.0
03 20:15 E 7 16.09 A Few Clouds FEW019 28 26 89% 34 76.2 0.0
03 19:55 E 7 16.09 A Few Clouds FEW017 FEW022 FEW029 28 26 89% 34 76.2 0.0
03 19:35 E 11 16.09 Partly Cloudy SCT018 SCT023 SCT028 29 26 84% 36 76.2 0.0
03 19:10 E 13 16.09 A Few Clouds FEW019 29 26 84% 36 76.23 0.0
03 18:55 E 13 16.09 Partly Cloudy FEW020 FEW025 SCT032 29 26 84% 36 76.2 0.0
03 18:35 E 13 16.09 Mostly Cloudy SCT021 BKN028 BKN033 29 26 84% 36 76.2 0.0
03 18:15 E 11 16.09 Partly Cloudy FEW021 SCT030 SCT035 30 26 79% 37 76.2 0.0
03 17:55 E 15 16.09 A Few Clouds FEW020 31 26 75% 39 76.23 0.0
03 17:35 E 15 16.09 Partly Cloudy FEW022 FEW027 SCT070 30 25 75% 36 76.23 0.0
Date Time (edt) Wind (kph) Vis. (km) Weather Sky Cond. Air Dwpt Max. Min. Relative Humidity Wind Chill (°C) Heat Index (°C) altimeter (cm) sea level (mb) 1 hr 3 hr 6 hr
6 hour
Temperature (ºC) Pressure Precipitation (cm)